Nearby METAR Reports

 

KNUQ - Moffett Nas/Mtn, California, USA
Distance from station: N 9mi, 14km
Updated: Sat, 24-Jul-2021 1:15pm PDT
Clear
Clear
 Wind from NNW
Wind: NNW 8 mph , 13 km/h
Temperature: 73°F , 23°C
Dew Point: 55°F , 13°C
Humidity: 53%
Barometer: 29.97 inHg , 1014.9 hPa
Clouds: Clear
Visibility: 10 miles , 16 km
2021/07/24 20:15 KNUQ 242015Z AUTO 34007KT 320V020 10SM CLR 23/13 A2997 RMK AO2
KSJC - San Jose, California, USA
Distance from station: NE 9mi, 14km
Updated: Sat, 24-Jul-2021 12:53pm PDT
Partly Cloudy
Partly Cloudy
 Wind from NNW
Wind: NNW 8 mph , 13 km/h
Temperature: 79°F , 26°C
Dew Point: 55°F , 13°C
Humidity: 45%
Barometer: 29.97 inHg , 1014.9 hPa
Clouds: Partly Cloudy
Visibility: 10 miles , 16 km
Cloud details: Few Clouds 8000 ft
Partly Cloudy 15000 ft
2021/07/24 19:53 KSJC 241953Z 34007KT 10SM FEW080 SCT150 26/13 A2997 RMK AO2 SLP147 T02560133
 
KRHV - San Jose/Reid, California, USA
Distance from station: ENE 12mi, 19km
Updated: Sat, 24-Jul-2021 12:47pm PDT
Clear
Clear
 Wind from calm
Wind: Calm
Temperature: 81°F , 27°C
Dew Point: 54°F , 12°C
Humidity: 39%
Barometer: 29.97 inHg , 1014.9 hPa
Clouds: Clear
Visibility: 10 miles , 16 km
2021/07/24 19:47 KRHV 241947Z 00000KT 10SM SKC 27/12 A2997
KPAO - Palo Alto, California, USA
Distance from station: NNW 14mi, 23km
Updated: Sat, 24-Jul-2021 12:47pm PDT
Clear
Clear
 Wind from NNE
Wind: NNE 10 mph , 17 km/h
Temperature: 70°F , 21°C
Dew Point: 57°F , 14°C
Humidity: 64%
Barometer: 29.99 inHg , 1015.6 hPa
Clouds: Clear
Visibility: 10 miles , 16 km
2021/07/24 19:47 KPAO 241947Z 02009KT 10SM SKC 21/14 A2999
 
KSQL - San Carlos Airpo, California, USA
Distance from station: NW 21mi, 34km
Updated: Sat, 24-Jul-2021 12:50pm PDT
Clear
Clear
 Wind from N
Wind: N 10 mph , 17 km/h
Temperature: 68°F , 20°C
Dew Point: 59°F , 15°C
Humidity: 73%
Barometer: 29.99 inHg , 1015.6 hPa
Clouds: Clear
Visibility: 10 miles , 16 km
2021/07/24 19:50 KSQL 241950Z 01009KT 10SM SKC 20/15 A2999
KWVI - Watsonville, California, USA
Distance from station: SSE 27mi, 44km
Updated: Sat, 24-Jul-2021 12:53pm PDT
Clear
Clear
 Wind from SW
Wind: SW 10 mph , 17 km/h
Temperature: 64°F , 18°C
Dew Point: 54°F , 12°C
Humidity: 68%
Barometer: 30.03 inHg , 1016.9 hPa
Clouds: Clear
Visibility: 10 miles , 16 km
2021/07/24 19:53 KWVI 241953Z AUTO 22009KT 10SM CLR 18/12 A3003 RMK AO2 SLP168 T01830122
 
KHWD - Hayward, California, USA
Distance from station: N 28mi, 44km
Updated: Sat, 24-Jul-2021 12:54pm PDT
Clear
Clear
 Wind from W
Wind: W 9 mph , 15 km/h
Temperature: 72°F , 22°C
Dew Point: 55°F , 13°C
Humidity: 57%
Barometer: 29.98 inHg , 1015.2 hPa
Clouds: Clear
Visibility: 10 miles , 16 km
2021/07/24 19:54 KHWD 241954Z 27008KT 10SM CLR 22/13 A2998 RMK AO2 SLP161 T02220128
KSFO - San Francisco, California, USA
Distance from station: NW 30mi, 49km
Updated: Sat, 24-Jul-2021 11:56am PDT
NOT Current
Few Clouds
Few Clouds
 Wind from NNE
Wind: NNE 9 mph , 15 km/h
Temperature: 64°F , 18°C
Dew Point: 55°F , 13°C
Humidity: 73%
Barometer: 30.00 inHg , 1015.9 hPa
Clouds: Few Clouds
Visibility: 10 miles , 16 km
Cloud details: Few Clouds 800 ft
2021/07/24 18:56 KSFO 241856Z 03008KT 10SM FEW008 18/13 A3000
 
KHAF - Half Moon Bay, California, USA
Distance from station: WNW 31mi, 50km
Updated: Fri, 09-Jul-2021 7:35am PDT
NOT Current
Light rain, Clear
Light rain, Clear
 
Temperature: 55°F , 13°C
Dew Point: 54°F , 12°C
Humidity: 94%
Barometer: 29.91 inHg , 1012.9 hPa
Summary: Light Rain
Clouds: Clear
Visibility: 4 miles , 6 km
2021/07/09 14:35 KHAF 091435Z AUTO 4SM -RA CLR 13/12 A2991 RMK AO2
KOAK - Oakland, California, USA
Distance from station: NNW 31mi, 50km
Updated: Sat, 24-Jul-2021 12:53pm PDT
Partly Cloudy
Partly Cloudy
 Wind from WNW
Wind: WNW 15 mph , 24 km/h
Temperature: 66°F , 19°C
Dew Point: 55°F , 13°C
Humidity: 68%
Barometer: 29.99 inHg , 1015.6 hPa
Clouds: Partly Cloudy
Visibility: 10 miles , 16 km
Cloud details: Few Clouds 1000 ft
Partly Cloudy 20000 ft
2021/07/24 19:53 KOAK 241953Z 30013KT 10SM FEW010 SCT200 19/13 A2999 RMK AO2 SLP156 T01940128
 
KLVK - Livermore, California, USA
Distance from station: NNE 31mi, 51km
Updated: Sat, 24-Jul-2021 12:53pm PDT
Clear
Clear
 Wind from WSW
Wind: WSW 7 mph , 11 km/h
Temperature: 88°F , 31°C
Dew Point: 46°F , 8°C
Humidity: 24%
Barometer: 29.94 inHg , 1013.9 hPa
Clouds: Clear
Visibility: 10 miles , 16 km
2021/07/24 19:53 KLVK 241953Z 25006KT 10SM CLR 31/08 A2994 RMK AO2 SLP134 T03110078
KCVH - Hollister Muni, California, USA
Distance from station: SE 42mi, 68km
Updated: Sat, 24-Jul-2021 12:55pm PDT
Clear
Clear
 Wind from W
Wind: W 13 mph , 20 km/h
Temperature: 73°F , 23°C
Dew Point: 55°F , 13°C
Humidity: 53%
Barometer: 30.00 inHg , 1015.9 hPa
Clouds: Clear
Visibility: 10 miles , 16 km
2021/07/24 19:55 KCVH 241955Z AUTO 26011KT 10SM CLR 23/13 A3000 RMK A01
 
KSNS - Salinas, California, USA
Distance from station: SSE 48mi, 77km
Updated: Sat, 24-Jul-2021 12:53pm PDT
Clear
Clear
 Wind from NW
Wind: NW 12 mph , 19 km/h
Temperature: 64°F , 18°C
Dew Point: 54°F , 12°C
Humidity: 68%
Barometer: 30.01 inHg , 1016.3 hPa
Clouds: Clear
Visibility: 10 miles , 16 km
2021/07/24 19:53 KSNS 241953Z 31010KT 10SM CLR 18/12 A3001 RMK AO2 SLP172 T01830117
KMRY - Monterey, California, USA
Distance from station: SSE 49mi, 78km
Updated: Sat, 24-Jul-2021 12:54pm PDT
Clear
Clear
 Wind from W
Wind: W 8 mph , 13 km/h
Temperature: 66°F , 19°C
Dew Point: 54°F , 12°C
Humidity: 64%
Barometer: 30.02 inHg , 1016.6 hPa
Clouds: Clear
Visibility: 10 miles , 16 km
2021/07/24 19:54 KMRY 241954Z 28007KT 10SM CLR 19/12 A3002 RMK AO2 SLP176 T01940117
 
KCCR - Concord, California, USA
Distance from station: N 50mi, 81km
Updated: Sat, 24-Jul-2021 12:53pm PDT
Clear
Clear
 Wind from N
Wind: N 10 mph , 17 km/h
Temperature: 82°F , 28°C
Dew Point: 52°F , 11°C
Humidity: 35%
Barometer: 29.94 inHg , 1013.9 hPa
Clouds: Clear
Visibility: 10 miles , 16 km
2021/07/24 19:53 KCCR 241953Z 35009KT 10SM CLR 28/11 A2994 RMK AO2 SLP123 T02830111

Metar display script from Saratoga-Weather.org